Login
Access
Login with your mtb-forum.it nickname and password.


You do not have an account? Sign up here for free

aceace24

Last training unit 28/07/2013
0
Followers
10 369 Km
itineraries
149 688 m
of total vertical gain
386
hours of riding
27.13 Km/h
average speed
137
average HR


28/07/2013 Show to everybody muro 82.27 Km 1109 m 03:04:58 26.69 Km\h Cinelli Pro Best Of
21/07/2013 Show to everybody la mont blanc 141.74 Km 3485 m 05:33:53 25.47 Km\h Cinelli Pro Best Of
17/07/2013 Show to everybody ONNO 82.54 Km 598 m 02:24:19 34.31 Km\h Cinelli Pro Best Of
14/07/2013 Show to everybody PASSO AGUEGLIO 145.3 Km 1965 m 05:22:59 26.99 Km\h Cinelli Pro Best Of
13/07/2013 Show to everybody NESSO 100.03 Km 1394 m 03:53:01 25.76 Km\h Cinelli Pro Best Of
11/07/2013 Show to everybody onno 83.95 Km 557 m 02:18:23 36.4 Km\h Cinelli Pro Best Of
07/07/2013 Show to everybody bisbino 98.19 Km 1632 m 04:04:07 24.13 Km\h Cinelli Pro Best Of
02/07/2013 Show to everybody onno serale 84.71 Km 601 m 02:38:32 32.06 Km\h Cinelli Pro Best Of
30/06/2013 Show to everybody austria3 35.95 Km 1485 m 02:12:42 16.25 Km\h Cinelli Pro Best Of
29/06/2013 Show to everybody austria2 187.75 Km 4560 m 07:45:24 24.21 Km\h Cinelli Pro Best Of
28/06/2013 Show to everybody austria1 104.56 Km 2338 m 04:07:14 25.37 Km\h Cinelli Pro Best Of
23/06/2013 Show to everybody GF GIORDANA 176.67 Km 4174 m 07:06:48 24.84 Km\h Cinelli Pro Best Of
19/06/2013 Show to everybody nesso hot 98.35 Km 2323 m 03:31:16 27.93 Km\h Cinelli Pro Best Of
16/06/2013 Show to everybody san marc 224.13 Km 2517 m 08:26:58 26.53 Km\h Cinelli Pro Best Of
15/06/2013 Show to everybody colma 84.99 Km 1592 m 03:08:48 27.01 Km\h Cinelli Pro Best Of
11/06/2013 Show to everybody antiacqua 46.46 Km 247 m 01:31:47 30.37 Km\h Cinelli Pro Best Of
09/06/2013 Show to everybody brianza velenosa 64.1 Km 1024 m 02:41:38 23.79 Km\h Cinelli Pro Best Of
06/06/2013 Show to everybody vicerè 58.26 Km 803 m 02:12:06 26.46 Km\h Cinelli Pro Best Of
03/06/2013 Show to everybody vicerè 62.37 Km 802 m 02:16:26 27.43 Km\h Cinelli Pro Best Of
01/06/2013 Show to everybody activity_321026203 117.43 Km 1653 m 04:37:09 25.42 Km\h Cinelli Pro Best Of
26/05/2013 Show to everybody activity_318683353 150.52 Km 3461 m 04:51:44 30.96 Km\h Cinelli Pro Best Of
23/05/2013 Show to everybody activity_317009169 61.48 Km 894 m 02:14:00 27.53 Km\h Cinelli Pro Best Of
19/05/2013 Show to everybody activity_315737726 130.25 Km 2479 m 04:50:43 26.88 Km\h Cinelli Pro Best Of
14/05/2013 Show to everybody activity_312761481 59.83 Km 788 m 02:11:06 27.38 Km\h Cinelli Pro Best Of
12/05/2013 Show to everybody activity_312067811 159.26 Km 2976 m 05:40:34 28.06 Km\h Cinelli Pro Best Of
08/05/2013 Show to everybody activity_309965448 67.39 Km 1056 m 02:35:21 26.03 Km\h Cinelli Pro Best Of
05/05/2013 Show to everybody activity_309965485 106.66 Km 1562 m 04:16:17 24.97 Km\h Cinelli Pro Best Of
04/05/2013 Show to everybody activity_309965529 118.42 Km 1824 m 04:48:24 24.64 Km\h Cinelli Pro Best Of
28/04/2013 Show to everybody activity_304390636 84.17 Km 580 m 02:38:20 31.9 Km\h Cinelli Pro Best Of
25/04/2013 Show to everybody activity_303029680 142.95 Km 2356 m 05:43:43 24.95 Km\h Cinelli Pro Best Of
21/04/2013 Show to everybody activity_300946625 57.48 Km 328 m 01:54:21 30.16 Km\h Cinelli Pro Best Of
14/04/2013 Show to everybody GS PERINI 127.61 Km 2189 m 04:27:54 28.58 Km\h Cinelli Pro Best Of
10/04/2013 Show to everybody ONNO SERALE 79.7 Km 566 m 02:23:11 33.4 Km\h Cinelli Pro Best Of
30/03/2013 Show to everybody 12 53.9 Km 721 m 02:06:26 25.58 Km\h Cinelli Pro Best Of
29/03/2013 Show to everybody 12 83.43 Km 591 m 02:41:48 30.94 Km\h Cinelli Pro Best Of
23/03/2013 Show to everybody 12 98.44 Km 1414 m 03:55:38 25.07 Km\h Cinelli Pro Best Of
16/03/2013 Show to everybody 1 86.19 Km 1255 m 03:24:42 25.26 Km\h Cinelli Pro Best Of
10/03/2013 Show to everybody 32 191.05 Km 1960 m 06:43:09 28.43 Km\h Cinelli Pro Best Of
03/03/2013 Show to everybody 32 71.99 Km 653 m 02:42:59 26.5 Km\h Cinelli Pro Best Of
23/02/2013 Show to everybody 32 64.29 Km 481 m 02:04:08 31.07 Km\h Cinelli Pro Best Of
17/02/2013 Show to everybody 111 81.6 Km 838 m 03:08:15 26.01 Km\h Cinelli Pro Best Of
16/02/2013 Show to everybody 111 97.26 Km 1167 m 03:44:22 26.01 Km\h Cinelli Pro Best Of
10/02/2013 Show to everybody 111 111.65 Km 1645 m 03:54:51 28.53 Km\h Cinelli Pro Best Of
10/02/2013 Show to everybody 111 9.7 Km 123 m 00:28:36 20.35 Km\h Cinelli Pro Best Of
03/02/2013 Show to everybody 111 87.81 Km 996 m 03:28:07 25.32 Km\h Cinelli Pro Best Of
26/01/2013 Show to everybody 111 75.86 Km 876 m 02:56:11 25.83 Km\h Cinelli Pro Best Of
23/01/2013 Show to everybody 111 40.43 Km 346 m 01:34:33 25.66 Km\h Cinelli Pro Best Of
12/01/2013 Show to everybody 11 87.49 Km 635 m 03:06:05 28.21 Km\h Cinelli Pro Best Of
06/01/2013 Show to everybody 32 81.44 Km 929 m 03:06:09 26.25 Km\h Cinelli Pro Best Of
05/01/2013 Show to everybody 1 62.48 Km 860 m 02:38:35 23.64 Km\h Cinelli Pro Best Of
30/12/2012 Show to everybody 41 74.76 Km 625 m 02:37:37 28.46 Km\h Cinelli Pro Best Of
25/11/2012 Show to everybody 41 52.52 Km 706 m 02:04:48 25.25 Km\h Cinelli Pro Best Of
18/11/2012 Show to everybody 41 79.24 Km 818 m 02:53:24 27.42 Km\h Cinelli Pro Best Of
02/11/2012 Show to everybody 41 53.33 Km 695 m 02:03:16 25.96 Km\h Cinelli Pro Best Of
21/10/2012 Show to everybody 41 81.31 Km 1199 m 03:27:32 23.51 Km\h Cinelli Pro Best Of
07/10/2012 Show to everybody 41 78.34 Km 1127 m 03:13:40 24.27 Km\h Cinelli Pro Best Of
26/08/2012 Show to everybody activity_215253121 100.14 Km 2216 m 03:42:53 26.96 Km\h Cinelli Pro Best Of
20/08/2012 Show to everybody activity_212955918 97.59 Km 2189 m 03:36:54 27 Km\h Cinelli Pro Best Of
18/08/2012 Show to everybody activity_211853928 58.53 Km 803 m 02:11:45 26.65 Km\h Cinelli Pro Best Of
15/08/2012 Show to everybody activity_210759039 68.53 Km 1346 m 02:47:59 24.48 Km\h Cinelli Pro Best Of
13/08/2012 Show to everybody activity_209998919 62.03 Km 671 m 02:16:53 27.19 Km\h Cinelli Pro Best Of
12/08/2012 Show to everybody activity_209447055 84.28 Km 933 m 02:39:21 31.73 Km\h Cinelli Pro Best Of
02/08/2012 Show to everybody activity_205694172 105.87 Km 1511 m 04:09:14 25.49 Km\h Cinelli Pro Best Of
01/08/2012 Show to everybody activity_205694182 57.94 Km 623 m 02:10:43 26.59 Km\h Cinelli Pro Best Of
31/07/2012 Show to everybody activity_205047709 98.01 Km 1404 m 03:39:30 26.79 Km\h Cinelli Pro Best Of
29/07/2012 Show to everybody activity_204262051 60.18 Km 723 m 02:13:46 26.99 Km\h Cinelli Pro Best Of
25/07/2012 Show to everybody vicerè 59.7 Km 951 m 02:11:33 27.23 Km\h Cinelli Pro Best Of
21/07/2012 Show to everybody consonno - lissolo 78.52 Km 1136 m 03:01:28 25.96 Km\h Cinelli Pro Best Of
18/07/2012 Show to everybody colle lissolo 53.15 Km 710 m 01:47:21 29.71 Km\h Cinelli Pro Best Of
15/07/2012 Show to everybody colle lissolo da erba 67.93 Km 668 m 02:24:13 28.26 Km\h Cinelli Pro Best Of
07/07/2012 Show to everybody prova bici 3.83 Km 6 m 00:10:15 22.41 Km\h Cinelli Pro Best Of
05/07/2012 Show to everybody vicerè 60.52 Km 956 m 02:11:26 27.63 Km\h Cinelli Pro Best Of
01/07/2012 Show to everybody passo spluga 74.73 Km 2352 m 03:14:37 23.04 Km\h Cinelli Pro Best Of
30/06/2012 Show to everybody laxolo-valsecca 144.71 Km 1854 m 05:30:55 26.24 Km\h Cinelli Pro Best Of
23/06/2012 Show to everybody brunate 73.61 Km 1055 m 02:46:03 26.6 Km\h Cinelli Pro Best Of
21/06/2012 Show to everybody colle-lissolo 52.87 Km 679 m 01:44:46 30.28 Km\h Cinelli Pro Best Of
19/06/2012 Show to everybody onno 84.94 Km 596 m 02:27:50 34.47 Km\h Cinelli Pro Best Of
17/06/2012 Show to everybody sanremo 203.99 Km 1594 m 07:24:00 27.57 Km\h Cinelli Pro Best Of
10/06/2012 Show to everybody colma.muro.nesso 118.2 Km 2267 m 04:47:01 24.71 Km\h Cinelli Pro Best Of
05/06/2012 Show to everybody onno night training 83.92 Km 571 m 02:29:26 33.7 Km\h Cinelli Pro Best Of
27/05/2012 Show to everybody Valcava - Berbenno - Culmine 173.2 Km 5071 m 07:00:33 24.71 Km\h Cinelli Pro Best Of
24/05/2012 Show to everybody vicerè 61.33 Km 756 m 02:11:28 27.99 Km\h Cinelli Pro Best Of
22/05/2012 Show to everybody colle brianza-giovenzana-lissolo 63.06 Km 995 m 02:16:33 27.71 Km\h Cinelli Pro Best Of
19/05/2012 Show to everybody selvino - bedulita - valcava 178.82 Km 4035 m 07:03:29 25.34 Km\h Cinelli Pro Best Of
17/05/2012 Show to everybody colma di sormano 85.35 Km 1148 m 03:00:10 28.42 Km\h Cinelli Pro Best Of
12/05/2012 Show to everybody paglio-val varrone-vendrogno 179.43 Km 4569 m 07:32:08 23.81 Km\h Cinelli Pro Best Of
09/05/2012 Show to everybody onno 84.51 Km 623 m 02:30:45 33.64 Km\h Cinelli Pro Best Of
06/05/2012 Show to everybody gara seregno 57.42 Km 150 m 01:21:44 42.15 Km\h Cinelli Pro Best Of
03/05/2012 Show to everybody colle brianza - lissolo 55.84 Km 750 m 02:16:19 24.58 Km\h Cinelli Pro Best Of
29/04/2012 Show to everybody cornizzolo 68.14 Km 1109 m 02:39:28 25.64 Km\h Cinelli Pro Best Of
28/04/2012 Show to everybody bergamo - culmine san pietro 157.44 Km 2027 m 05:54:57 26.61 Km\h Cinelli Pro Best Of
25/04/2012 Show to everybody colma di sormano 86.7 Km 1133 m 03:21:37 25.8 Km\h Cinelli Pro Best Of
21/04/2012 Show to everybody esino lario-passo agueglio 146.51 Km 1935 m 05:30:50 26.57 Km\h Cinelli Pro Best Of
17/04/2012 Show to everybody magreglio 60.37 Km 744 m 02:10:58 27.66 Km\h Cinelli Pro Best Of
15/04/2012 Show to everybody GF sant\`angelo lodigiano 69.74 Km 399 m 02:00:38 34.69 Km\h Cinelli Pro Best Of
06/04/2012 Show to everybody ghisallo 96.58 Km 1147 m 03:30:25 27.54 Km\h Cinelli Pro Best Of
02/04/2012 Show to everybody vicerè 62.39 Km 790 m 02:20:24 26.66 Km\h Cinelli Pro Best Of
01/04/2012 Show to everybody nesso 101.28 Km 1400 m 03:44:41 27.05 Km\h Cinelli Pro Best Of
29/03/2012 Show to everybody colle brianza - lissolo 54.52 Km 721 m 01:56:31 28.08 Km\h Cinelli Pro Best Of
27/03/2012 Show to everybody onno night training 85.36 Km 621 m 02:31:31 33.8 Km\h Cinelli Pro Best Of
25/03/2012 Show to everybody monte bisbino 94.81 Km 1631 m 04:06:56 23.04 Km\h Cinelli Pro Best Of
24/03/2012 Show to everybody resinelli 108.9 Km 2426 m 04:21:48 24.96 Km\h Cinelli Pro Best Of
17/03/2012 Show to everybody colma- superghisallo 123.02 Km 2024 m 04:57:20 24.83 Km\h Cinelli Pro Best Of
11/03/2012 Show to everybody colle della madonnina-magreglio 80.79 Km 858 m 02:56:49 27.41 Km\h Cinelli Pro Best Of
10/03/2012 Show to everybody onno 84.3 Km 626 m 02:50:01 29.75 Km\h Cinelli Pro Best Of
04/03/2012 Show to everybody colle brianza - lissolo 70.78 Km 705 m 02:38:01 26.87 Km\h Cinelli Pro Best Of
26/02/2012 Show to everybody eupilio 65.72 Km 425 m 02:28:38 26.53 Km\h Cinelli Pro Best Of
25/02/2012 Show to everybody nesso 97.83 Km 1412 m 04:04:47 23.98 Km\h Cinelli Pro Best Of
19/02/2012 Show to everybody onno 84.79 Km 582 m 02:55:19 29.02 Km\h Cinelli Pro Best Of
18/02/2012 Show to everybody colle brianza - lissolo 55.84 Km 690 m 02:16:39 24.52 Km\h Cinelli Pro Best Of
14/01/2012 Show to everybody lago interno-onno 105.74 Km 1092 m 03:56:44 26.8 Km\h Cinelli Pro Best Of
08/01/2012 Show to everybody vicerè 59.73 Km 832 m 02:31:29 23.66 Km\h Cinelli Pro Best Of
06/01/2012 Show to everybody onno 84.64 Km 630 m 02:45:05 30.76 Km\h Cinelli Pro Best Of
04/01/2012 Show to everybody civiglio da ponzate-sanfermo 69.01 Km 773 m 02:46:35 24.86 Km\h Cinelli Pro Best Of
01/01/2012 Show to everybody costa lambro 21.4 Km 128 m 01:03:15 20.3 Km\h Cinelli Pro Best Of
31/12/2011 Show to everybody merone-anzano al parco 49.53 Km 339 m 01:48:25 27.41 Km\h Cinelli Pro Best Of

Show previous years trainings
This user's bikes.
Cinelli Pro Best Of 39 3844.95 Km 61088 m 143:54:23 27.12 Km/h

109 points
Kilometers
0
Vertical gain
0
Rank:137

Watch ranking »

 

Bike name

Delete this bike?

Now you follow this users and you can compare your trainings

If you stop following this users you will not be able to compare your trainings with his


bdc-forum.it | 2012-2021 Training Camp v.1.0.15